createdAt,value
2017-12-31T00:00:58.925Z,2.37
2017-12-31T00:03:24.630Z,3.17
2017-12-31T00:05:50.345Z,2.97
2017-12-31T00:08:16.036Z,2.57
2017-12-31T00:10:41.789Z,2.17
2017-12-31T00:13:07.478Z,2.13
2017-12-31T00:15:33.190Z,2.30
2017-12-31T00:17:58.884Z,4.30
2017-12-31T00:20:24.565Z,4.20
2017-12-31T00:22:50.429Z,3.20
2017-12-31T00:25:16.118Z,2.80
2017-12-31T00:27:41.785Z,2.70
2017-12-31T00:30:07.482Z,3.63
2017-12-31T00:32:33.158Z,1.73
2017-12-31T00:34:58.834Z,4.13
2017-12-31T00:37:24.531Z,2.33
2017-12-31T00:39:50.226Z,2.60
2017-12-31T00:42:15.930Z,2.50
2017-12-31T00:44:41.698Z,3.03
2017-12-31T00:47:07.460Z,2.80
2017-12-31T00:49:33.149Z,2.50
2017-12-31T00:51:58.834Z,3.30
2017-12-31T00:54:24.522Z,2.43
2017-12-31T00:56:50.262Z,3.63
2017-12-31T00:59:15.949Z,2.13
2017-12-31T01:01:41.639Z,1.80
2017-12-31T01:04:07.362Z,2.50
2017-12-31T01:06:33.078Z,2.47
2017-12-31T01:08:58.766Z,1.67
2017-12-31T01:11:24.677Z,2.43
2017-12-31T01:13:50.366Z,2.53
2017-12-31T01:16:16.217Z,2.80
2017-12-31T01:18:42.082Z,2.50
2017-12-31T01:21:07.774Z,4.80
2017-12-31T01:23:33.458Z,1.70
2017-12-31T01:25:59.173Z,2.07
2017-12-31T01:28:24.849Z,4.90
2017-12-31T01:30:50.530Z,3.23
2017-12-31T01:33:16.231Z,1.80
2017-12-31T01:35:41.909Z,2.57
2017-12-31T01:38:07.598Z,3.37
2017-12-31T01:40:33.292Z,3.20
2017-12-31T01:42:58.966Z,4.57
2017-12-31T01:45:24.660Z,3.10
2017-12-31T01:47:50.551Z,3.47
2017-12-31T01:50:16.269Z,2.50
2017-12-31T01:52:41.948Z,3.43
2017-12-31T01:55:07.629Z,2.70
2017-12-31T01:57:33.522Z,2.80
2017-12-31T01:59:59.223Z,2.67
2017-12-31T02:02:24.900Z,3.63
2017-12-31T02:04:50.594Z,3.17
2017-12-31T02:07:16.264Z,3.23
2017-12-31T02:09:41.928Z,3.17
2017-12-31T02:12:07.621Z,2.70
2017-12-31T02:14:33.300Z,3.80
2017-12-31T02:16:58.965Z,2.73
2017-12-31T02:19:24.660Z,3.77
2017-12-31T02:21:50.338Z,2.10
2017-12-31T02:24:16.014Z,3.47
2017-12-31T02:26:41.710Z,2.57
2017-12-31T02:29:07.377Z,3.00
2017-12-31T02:31:33.052Z,2.30
2017-12-31T02:33:58.770Z,3.27
2017-12-31T02:36:24.439Z,2.53
2017-12-31T02:38:50.108Z,3.07
2017-12-31T02:41:15.985Z,4.40
2017-12-31T02:43:41.668Z,3.17
2017-12-31T02:46:07.334Z,2.93
2017-12-31T02:48:33.028Z,4.07
2017-12-31T02:50:58.981Z,2.17
2017-12-31T02:53:24.662Z,2.70
2017-12-31T02:55:51.211Z,2.90
2017-12-31T02:58:16.898Z,2.83
2017-12-31T03:00:42.576Z,2.07
2017-12-31T03:03:08.461Z,2.20
2017-12-31T03:05:34.132Z,2.70
2017-12-31T03:07:59.811Z,4.27
2017-12-31T03:10:25.516Z,4.03
2017-12-31T03:12:51.192Z,3.90
2017-12-31T03:15:16.916Z,4.47
2017-12-31T03:17:42.598Z,3.17
2017-12-31T03:20:08.274Z,3.20
2017-12-31T03:22:34.290Z,3.97
2017-12-31T03:24:59.978Z,3.70
2017-12-31T03:27:25.656Z,2.87
2017-12-31T03:29:51.328Z,4.03
2017-12-31T03:32:17.026Z,4.00
2017-12-31T03:34:42.750Z,5.47
2017-12-31T03:37:08.433Z,3.13
2017-12-31T03:39:34.143Z,3.40
2017-12-31T03:41:59.838Z,3.87
2017-12-31T03:44:25.508Z,3.90
2017-12-31T03:46:51.184Z,3.83
2017-12-31T03:49:17.064Z,3.80
2017-12-31T03:51:42.740Z,3.63
2017-12-31T03:54:08.408Z,4.50
2017-12-31T03:56:34.092Z,3.63
2017-12-31T03:58:59.756Z,3.20
2017-12-31T04:01:25.425Z,3.50
2017-12-31T04:03:51.245Z,2.40
2017-12-31T04:06:16.936Z,2.87
2017-12-31T04:08:42.606Z,4.50
2017-12-31T04:11:08.308Z,4.00
2017-12-31T04:13:34.312Z,4.90
2017-12-31T04:16:00.019Z,3.45
2017-12-31T04:18:25.714Z,2.73
2017-12-31T04:20:51.381Z,3.80
2017-12-31T04:23:17.044Z,3.17
2017-12-31T04:25:42.992Z,2.97
2017-12-31T04:28:08.672Z,3.13
2017-12-31T04:30:34.340Z,2.73
2017-12-31T04:33:00.024Z,3.40
2017-12-31T04:35:25.699Z,2.20
2017-12-31T04:37:51.396Z,3.27
2017-12-31T04:40:17.068Z,3.00
2017-12-31T04:42:42.744Z,2.60
2017-12-31T04:45:08.420Z,3.83
2017-12-31T04:47:34.093Z,3.27
2017-12-31T04:49:59.816Z,4.37
2017-12-31T04:52:25.488Z,2.80
2017-12-31T04:54:51.169Z,3.67
2017-12-31T04:57:16.872Z,2.87
2017-12-31T04:59:42.630Z,3.67
2017-12-31T05:02:08.308Z,2.70
2017-12-31T05:04:33.984Z,3.10
2017-12-31T05:06:59.676Z,2.47
2017-12-31T05:09:25.340Z,2.93
2017-12-31T05:11:51.024Z,3.70
2017-12-31T05:14:17.421Z,4.13
2017-12-31T05:16:43.098Z,4.12
2017-12-31T05:19:08.781Z,2.83
2017-12-31T05:21:34.481Z,4.27
2017-12-31T05:24:00.144Z,3.50
2017-12-31T05:26:25.819Z,3.80
2017-12-31T05:28:51.502Z,3.93
2017-12-31T05:31:17.428Z,2.70
2017-12-31T05:33:43.121Z,3.27
2017-12-31T05:36:08.791Z,4.33
2017-12-31T05:38:34.478Z,4.30
2017-12-31T05:41:00.153Z,3.77
2017-12-31T05:43:25.830Z,3.43
2017-12-31T05:45:51.513Z,4.50
2017-12-31T05:48:17.209Z,4.30
2017-12-31T05:50:42.868Z,2.80
2017-12-31T05:53:08.540Z,4.07
2017-12-31T05:55:34.224Z,3.93
2017-12-31T05:57:59.909Z,3.57
2017-12-31T06:00:25.597Z,4.00
2017-12-31T06:02:51.259Z,3.37
2017-12-31T06:05:16.928Z,4.37
2017-12-31T06:07:42.596Z,4.50
2017-12-31T06:10:08.281Z,3.50
2017-12-31T06:12:33.954Z,3.57
2017-12-31T06:14:59.630Z,4.00
2017-12-31T06:17:25.327Z,3.93
2017-12-31T06:19:50.996Z,3.83
2017-12-31T06:22:16.669Z,3.77
2017-12-31T06:24:42.496Z,4.27
2017-12-31T06:27:08.389Z,5.90
2017-12-31T06:29:34.070Z,5.23
2017-12-31T06:31:59.776Z,3.73
2017-12-31T06:34:25.464Z,4.17
2017-12-31T06:36:51.136Z,4.27
2017-12-31T06:39:16.829Z,4.23
2017-12-31T06:41:42.502Z,5.10
2017-12-31T06:44:08.180Z,5.30
2017-12-31T06:46:33.858Z,5.80
2017-12-31T06:48:59.534Z,5.63
2017-12-31T06:51:25.216Z,5.13
2017-12-31T06:53:50.906Z,4.13
2017-12-31T06:56:16.587Z,4.30
2017-12-31T06:58:42.271Z,4.10
2017-12-31T07:01:07.954Z,4.03
2017-12-31T07:03:33.632Z,4.30
2017-12-31T07:05:59.301Z,4.57
2017-12-31T07:08:24.977Z,4.37
2017-12-31T07:10:50.640Z,4.37
2017-12-31T07:13:16.312Z,5.37
2017-12-31T07:15:42.004Z,4.50
2017-12-31T07:18:07.673Z,4.70
2017-12-31T07:20:33.372Z,5.00
2017-12-31T07:22:59.085Z,7.33
2017-12-31T07:25:24.772Z,4.57
2017-12-31T07:27:50.469Z,4.10
2017-12-31T07:30:16.169Z,4.67
2017-12-31T07:32:41.837Z,4.40
2017-12-31T07:35:07.516Z,4.70
2017-12-31T07:37:33.213Z,4.80
2017-12-31T07:39:58.880Z,4.33
2017-12-31T07:42:24.545Z,4.30
2017-12-31T07:44:50.229Z,4.10
2017-12-31T07:47:15.896Z,5.03
2017-12-31T07:49:41.564Z,4.87
2017-12-31T07:52:07.662Z,5.20
2017-12-31T07:54:33.359Z,5.10
2017-12-31T07:56:59.040Z,4.50
2017-12-31T07:59:24.737Z,5.90
2017-12-31T08:01:50.423Z,7.40
2017-12-31T08:04:16.084Z,4.47
2017-12-31T08:06:41.802Z,5.30
2017-12-31T08:09:07.485Z,5.60
2017-12-31T08:11:33.160Z,6.43
2017-12-31T08:13:58.831Z,6.53
2017-12-31T08:16:24.510Z,6.80
2017-12-31T08:18:50.218Z,5.80
2017-12-31T08:21:15.899Z,6.53
2017-12-31T08:23:41.578Z,6.70
2017-12-31T08:28:45.763Z,23.83
2017-12-31T08:31:11.483Z,83.50
2017-12-31T08:33:37.182Z,30.93
2017-12-31T08:36:02.869Z,29.93
2017-12-31T08:38:28.569Z,8.80
2017-12-31T08:40:54.251Z,6.13
2017-12-31T08:43:19.924Z,6.37
2017-12-31T08:45:45.620Z,7.33
2017-12-31T08:48:11.287Z,7.33
2017-12-31T08:50:36.952Z,5.50
2017-12-31T08:53:02.653Z,6.87
2017-12-31T08:55:28.340Z,7.57
2017-12-31T08:57:53.996Z,6.77
2017-12-31T09:00:20.474Z,6.90
2017-12-31T09:02:46.227Z,6.53
2017-12-31T09:05:12.596Z,7.20
2017-12-31T09:07:38.428Z,6.67
2017-12-31T09:10:04.116Z,7.20
2017-12-31T09:12:29.940Z,7.03
2017-12-31T09:14:55.636Z,7.00
2017-12-31T09:17:21.330Z,7.33
2017-12-31T09:19:47.112Z,7.50
2017-12-31T09:22:13.110Z,6.10
2017-12-31T09:24:38.784Z,8.47
2017-12-31T09:27:04.472Z,6.00
2017-12-31T09:29:30.154Z,6.07
2017-12-31T09:32:02.729Z,7.20
2017-12-31T09:34:29.564Z,7.50
2017-12-31T09:36:55.268Z,7.23
2017-12-31T09:39:20.948Z,5.97
2017-12-31T09:41:46.618Z,7.03
2017-12-31T09:44:12.290Z,6.33
2017-12-31T09:46:37.993Z,7.67
2017-12-31T09:49:03.809Z,5.80
2017-12-31T09:51:29.499Z,4.90
2017-12-31T09:53:55.202Z,5.20
2017-12-31T09:56:20.872Z,6.00
2017-12-31T09:58:46.550Z,7.20
2017-12-31T10:01:12.245Z,6.10
2017-12-31T10:03:38.122Z,5.37
2017-12-31T10:06:03.813Z,6.57
2017-12-31T10:08:29.697Z,5.23
2017-12-31T10:10:55.437Z,6.50
2017-12-31T10:13:21.120Z,6.33
2017-12-31T10:15:47.032Z,6.70
2017-12-31T10:18:12.728Z,6.80
2017-12-31T10:20:38.429Z,7.20
2017-12-31T10:23:04.218Z,6.60
2017-12-31T10:25:29.901Z,5.10
2017-12-31T10:27:55.572Z,5.27
2017-12-31T10:30:21.258Z,6.33
2017-12-31T10:32:46.941Z,7.57
2017-12-31T10:35:12.664Z,6.20
2017-12-31T10:37:38.351Z,7.70
2017-12-31T10:40:04.039Z,5.70
2017-12-31T10:42:29.736Z,6.57
2017-12-31T10:44:57.010Z,6.30
2017-12-31T10:47:22.860Z,7.67
2017-12-31T10:49:48.547Z,4.67
2017-12-31T10:52:14.450Z,4.60
2017-12-31T10:54:40.135Z,5.80
2017-12-31T10:57:05.828Z,3.10
2017-12-31T10:59:31.608Z,6.83
2017-12-31T11:01:57.369Z,4.70
2017-12-31T11:04:23.073Z,4.17
2017-12-31T11:06:48.744Z,3.57
2017-12-31T11:09:14.412Z,2.00
2017-12-31T11:11:40.092Z,7.87
2017-12-31T11:14:05.785Z,4.57
2017-12-31T11:16:31.785Z,4.03
2017-12-31T11:18:57.497Z,6.20
2017-12-31T11:21:23.185Z,2.93
2017-12-31T11:23:48.882Z,3.90
2017-12-31T11:26:14.569Z,4.10
2017-12-31T11:28:40.406Z,11.53
2017-12-31T11:31:06.265Z,5.27
2017-12-31T11:33:31.948Z,8.27
2017-12-31T11:35:57.678Z,5.97
2017-12-31T11:38:23.578Z,6.50
2017-12-31T11:40:49.601Z,5.23
2017-12-31T11:43:15.277Z,6.77
2017-12-31T11:45:40.964Z,5.47
2017-12-31T11:48:06.638Z,8.00
2017-12-31T11:50:32.332Z,3.00
2017-12-31T11:52:58.174Z,5.10
2017-12-31T11:55:23.877Z,5.07
2017-12-31T11:57:49.712Z,3.33
2017-12-31T12:00:15.410Z,3.80
2017-12-31T12:02:42.173Z,5.70
2017-12-31T12:05:07.847Z,3.97
2017-12-31T12:07:33.540Z,4.20
2017-12-31T12:09:59.229Z,4.10
2017-12-31T12:12:24.898Z,4.47
2017-12-31T12:14:50.852Z,5.10
2017-12-31T12:17:16.766Z,6.87
2017-12-31T12:19:42.488Z,5.03
2017-12-31T12:22:08.332Z,4.63
2017-12-31T12:24:34.061Z,5.00
2017-12-31T12:27:00.149Z,4.80
2017-12-31T12:29:25.824Z,4.47
2017-12-31T12:31:51.533Z,4.40
2017-12-31T12:34:17.219Z,4.07
2017-12-31T12:36:43.041Z,5.53
2017-12-31T12:39:08.750Z,4.60
2017-12-31T12:41:34.440Z,6.30
2017-12-31T12:44:00.137Z,7.83
2017-12-31T12:46:25.964Z,5.37
2017-12-31T12:48:51.826Z,4.90
2017-12-31T12:51:17.520Z,5.40
2017-12-31T12:53:43.220Z,2.80
2017-12-31T12:56:08.900Z,10.90
2017-12-31T12:58:34.573Z,6.23
2017-12-31T13:01:00.280Z,5.83
2017-12-31T13:03:26.192Z,5.43
2017-12-31T13:05:51.869Z,8.30
2017-12-31T13:08:17.566Z,5.20
2017-12-31T13:10:43.232Z,7.00
2017-12-31T13:13:08.908Z,7.47
2017-12-31T13:15:34.864Z,3.50
2017-12-31T13:18:00.552Z,5.50
2017-12-31T13:20:26.219Z,6.67
2017-12-31T13:22:51.915Z,3.80
2017-12-31T13:25:17.604Z,4.57
2017-12-31T13:27:43.316Z,3.80
2017-12-31T13:30:08.988Z,4.67
2017-12-31T13:32:34.669Z,4.00
2017-12-31T13:35:00.352Z,2.80
2017-12-31T13:37:26.049Z,4.80
2017-12-31T13:39:51.711Z,5.30
2017-12-31T13:42:17.429Z,3.37
2017-12-31T13:44:43.096Z,4.10
2017-12-31T13:47:10.254Z,4.33
2017-12-31T13:49:36.222Z,3.90
2017-12-31T13:52:01.910Z,7.20
2017-12-31T13:54:27.582Z,3.50
2017-12-31T13:56:53.641Z,4.60
2017-12-31T13:59:19.319Z,130.03
2017-12-31T14:01:45.788Z,5.70
2017-12-31T14:04:11.481Z,4.13
2017-12-31T14:06:37.159Z,3.57
2017-12-31T14:09:02.884Z,3.17
2017-12-31T14:11:28.573Z,4.97
2017-12-31T14:13:54.244Z,2.90
2017-12-31T14:16:19.929Z,5.70
2017-12-31T14:18:45.620Z,3.40
2017-12-31T14:21:11.293Z,4.97
2017-12-31T14:23:37.005Z,5.40
2017-12-31T14:26:02.693Z,6.60
2017-12-31T14:28:28.365Z,7.10
2017-12-31T14:30:54.920Z,6.10
2017-12-31T14:33:20.594Z,7.80
2017-12-31T14:35:46.277Z,8.10
2017-12-31T14:38:11.985Z,7.80
2017-12-31T14:40:37.662Z,6.40
2017-12-31T14:43:03.334Z,5.87
2017-12-31T14:45:29.025Z,8.37
2017-12-31T14:47:54.697Z,7.50
2017-12-31T14:50:20.378Z,6.90
2017-12-31T14:52:46.092Z,11.30
2017-12-31T14:55:11.773Z,7.20
2017-12-31T14:57:37.446Z,8.57
2017-12-31T15:00:03.165Z,9.07
2017-12-31T15:02:28.849Z,7.70
2017-12-31T15:04:54.514Z,8.23
2017-12-31T15:07:20.206Z,11.00
2017-12-31T15:09:45.874Z,14.30
2017-12-31T15:12:11.556Z,10.27
2017-12-31T15:14:37.289Z,19.87
2017-12-31T15:17:02.956Z,6.30
2017-12-31T15:19:28.642Z,7.30
2017-12-31T15:21:54.333Z,10.23
2017-12-31T15:24:20.028Z,5.23
2017-12-31T15:26:45.706Z,6.63
2017-12-31T15:29:11.419Z,7.97
2017-12-31T15:31:37.089Z,4.57
2017-12-31T15:34:02.770Z,7.00
2017-12-31T15:36:28.460Z,6.40
2017-12-31T15:38:54.128Z,7.90
2017-12-31T15:41:19.804Z,6.37
2017-12-31T15:43:45.497Z,4.50
2017-12-31T15:46:11.172Z,4.67
2017-12-31T15:48:43.962Z,8.70
2017-12-31T15:51:09.906Z,4.97
2017-12-31T15:53:35.596Z,8.90
2017-12-31T15:56:01.269Z,4.90
2017-12-31T15:58:26.961Z,10.27
2017-12-31T16:00:52.628Z,12.37
2017-12-31T16:03:18.308Z,5.87
2017-12-31T16:05:43.996Z,6.30
2017-12-31T16:08:10.566Z,10.40
2017-12-31T16:10:36.237Z,8.60
2017-12-31T16:13:01.933Z,16.77
2017-12-31T16:15:27.622Z,16.17
2017-12-31T16:17:53.339Z,16.37
2017-12-31T16:20:19.372Z,14.77
2017-12-31T16:22:45.079Z,11.57
2017-12-31T16:25:10.766Z,11.03
2017-12-31T16:27:36.457Z,15.70
2017-12-31T16:30:02.149Z,10.93
2017-12-31T16:32:27.818Z,6.53
2017-12-31T16:34:53.509Z,10.63
2017-12-31T16:37:19.204Z,8.70
2017-12-31T16:39:44.908Z,8.03
2017-12-31T16:42:10.586Z,5.57
2017-12-31T16:44:36.276Z,4.27
2017-12-31T16:47:01.996Z,3.97
2017-12-31T16:49:27.669Z,6.37
2017-12-31T16:51:53.349Z,7.80
2017-12-31T16:54:19.022Z,4.27
2017-12-31T16:56:44.709Z,3.47
2017-12-31T16:59:10.468Z,4.50
2017-12-31T17:01:36.105Z,6.90
2017-12-31T17:04:01.796Z,12.67
2017-12-31T17:06:27.701Z,9.43
2017-12-31T17:08:53.377Z,4.60
2017-12-31T17:11:19.048Z,2.90
2017-12-31T17:13:44.759Z,13.77
2017-12-31T17:16:10.433Z,33.70
2017-12-31T17:18:36.104Z,34.47
2017-12-31T17:21:01.813Z,7.23
2017-12-31T17:23:27.484Z,5.93
2017-12-31T17:25:53.184Z,20.30
2017-12-31T17:28:19.966Z,17.67
2017-12-31T17:30:46.021Z,46.37
2017-12-31T17:33:11.693Z,66.27
2017-12-31T17:35:37.372Z,15.80
2017-12-31T17:38:03.045Z,10.60
2017-12-31T17:40:28.732Z,14.93
2017-12-31T17:42:54.412Z,24.33
2017-12-31T17:45:20.111Z,27.23
2017-12-31T17:47:45.797Z,29.97
2017-12-31T17:50:11.469Z,19.50
2017-12-31T17:52:37.139Z,22.33
2017-12-31T17:55:02.827Z,20.50
2017-12-31T17:57:28.508Z,18.83
2017-12-31T17:59:54.188Z,43.63
2017-12-31T18:02:19.873Z,27.80
2017-12-31T18:04:45.570Z,22.50
2017-12-31T18:07:11.272Z,18.87
2017-12-31T18:09:36.997Z,35.23
2017-12-31T18:12:02.704Z,14.30
2017-12-31T18:14:28.393Z,13.00
2017-12-31T18:16:54.065Z,9.80
2017-12-31T18:19:19.754Z,10.80
2017-12-31T18:21:45.444Z,21.40
2017-12-31T18:24:11.121Z,34.77
2017-12-31T18:26:36.838Z,159.87
2017-12-31T18:29:02.493Z,78.50
2017-12-31T18:31:28.180Z,55.33
2017-12-31T18:33:54.025Z,33.83
2017-12-31T18:36:20.061Z,35.13
2017-12-31T18:38:45.756Z,34.77
2017-12-31T18:41:11.421Z,37.60
2017-12-31T18:43:37.281Z,32.07
2017-12-31T18:46:02.960Z,36.17
2017-12-31T18:48:28.644Z,35.70
2017-12-31T18:50:54.329Z,32.60
2017-12-31T18:53:20.005Z,29.50
2017-12-31T18:55:45.696Z,30.23
2017-12-31T18:58:11.366Z,30.00
2017-12-31T19:00:37.040Z,16.43
2017-12-31T19:03:02.764Z,26.33
2017-12-31T19:05:28.448Z,25.00
2017-12-31T19:07:54.121Z,24.97
2017-12-31T19:10:19.817Z,26.70
2017-12-31T19:12:45.500Z,31.93
2017-12-31T19:15:11.221Z,37.50
2017-12-31T19:17:36.922Z,41.50
2017-12-31T19:20:02.622Z,46.73
2017-12-31T19:22:28.299Z,46.80
2017-12-31T19:24:53.977Z,48.73
2017-12-31T19:27:19.648Z,45.70
2017-12-31T19:29:45.598Z,106.30
2017-12-31T19:32:11.288Z,120.80
2017-12-31T19:34:36.981Z,52.40
2017-12-31T19:37:02.680Z,47.63
2017-12-31T19:39:28.352Z,35.70
2017-12-31T19:41:54.029Z,44.10
2017-12-31T19:44:19.705Z,41.10
2017-12-31T19:46:45.385Z,44.93
2017-12-31T19:49:11.089Z,36.30
2017-12-31T19:51:36.773Z,41.83
2017-12-31T19:54:02.469Z,43.97
2017-12-31T19:56:28.363Z,40.87
2017-12-31T19:58:54.057Z,40.40
2017-12-31T20:01:19.732Z,52.77
2017-12-31T20:03:45.422Z,41.30
2017-12-31T20:06:11.093Z,41.70
2017-12-31T20:08:36.801Z,43.30
2017-12-31T20:11:02.496Z,50.13
2017-12-31T20:13:28.169Z,50.60
2017-12-31T20:15:53.879Z,68.63
2017-12-31T20:18:19.544Z,55.33
2017-12-31T20:20:45.222Z,58.80
2017-12-31T20:23:10.929Z,58.40
2017-12-31T20:25:36.610Z,51.70
2017-12-31T20:28:02.297Z,44.10
2017-12-31T20:30:27.987Z,55.03
2017-12-31T20:32:53.665Z,56.47
2017-12-31T20:35:19.353Z,62.37
2017-12-31T20:37:45.066Z,62.87
2017-12-31T20:40:10.736Z,54.27
2017-12-31T20:42:36.412Z,52.80
2017-12-31T20:45:02.117Z,44.87
2017-12-31T20:47:27.791Z,47.67
2017-12-31T20:49:53.468Z,48.13
2017-12-31T20:52:19.152Z,53.67
2017-12-31T20:54:44.827Z,58.67
2017-12-31T20:57:10.496Z,64.30
2017-12-31T20:59:36.365Z,54.17
2017-12-31T21:02:02.038Z,62.13
2017-12-31T21:04:27.716Z,71.07
2017-12-31T21:06:53.717Z,27.57
2017-12-31T21:09:19.403Z,55.27
2017-12-31T21:11:45.087Z,44.03
2017-12-31T21:14:10.764Z,37.47
2017-12-31T21:16:36.450Z,41.70
2017-12-31T21:19:02.174Z,40.53
2017-12-31T21:21:27.853Z,51.20
2017-12-31T21:23:53.531Z,38.17
2017-12-31T21:26:27.228Z,36.90
2017-12-31T21:28:52.905Z,35.40
2017-12-31T21:31:18.592Z,37.77
2017-12-31T21:33:44.285Z,42.57
2017-12-31T21:36:09.988Z,42.13
2017-12-31T21:38:35.677Z,41.27
2017-12-31T21:41:01.393Z,43.60
2017-12-31T21:43:27.073Z,49.37
2017-12-31T21:45:52.744Z,69.57
2017-12-31T21:48:18.436Z,63.20
2017-12-31T21:50:44.111Z,79.53
2017-12-31T21:53:09.789Z,78.27
2017-12-31T21:55:35.726Z,52.67
2017-12-31T21:58:01.405Z,58.43
2017-12-31T22:00:27.083Z,55.07
2017-12-31T22:02:52.812Z,137.93
2017-12-31T22:05:18.493Z,201.50
2017-12-31T22:07:44.169Z,223.53
2017-12-31T22:10:10.022Z,419.03
2017-12-31T22:12:35.740Z,138.33
2017-12-31T22:15:01.412Z,91.87
2017-12-31T22:17:27.142Z,38.27
2017-12-31T22:19:52.827Z,45.27
2017-12-31T22:22:18.500Z,35.10
2017-12-31T22:24:44.176Z,37.83
2017-12-31T22:27:09.864Z,40.00
2017-12-31T22:29:35.838Z,37.73
2017-12-31T22:32:01.517Z,42.57
2017-12-31T22:34:27.189Z,48.13
2017-12-31T22:36:53.150Z,48.33
2017-12-31T22:39:18.836Z,43.80
2017-12-31T22:41:44.513Z,52.70
2017-12-31T22:44:10.216Z,47.37
2017-12-31T22:46:35.888Z,36.90
2017-12-31T22:49:01.567Z,37.67
2017-12-31T22:51:27.265Z,41.40
2017-12-31T22:53:52.956Z,53.10
2017-12-31T22:56:18.624Z,57.70
2017-12-31T22:58:44.848Z,42.60
2017-12-31T23:01:10.523Z,46.77
2017-12-31T23:03:36.188Z,33.70
2017-12-31T23:06:01.935Z,48.77
2017-12-31T23:08:27.587Z,247.83
2017-12-31T23:10:53.266Z,325.57
2017-12-31T23:13:18.949Z,545.80
2017-12-31T23:15:44.616Z,739.63
2017-12-31T23:18:10.325Z,585.13
2017-12-31T23:20:36.012Z,633.40
2017-12-31T23:23:01.692Z,774.17
2017-12-31T23:25:27.363Z,652.17
2017-12-31T23:27:53.060Z,586.73
2017-12-31T23:30:18.745Z,337.23
2017-12-31T23:32:44.432Z,497.33
2017-12-31T23:35:10.132Z,369.83
2017-12-31T23:37:35.804Z,377.67
2017-12-31T23:40:01.600Z,355.07
2017-12-31T23:42:27.428Z,393.30
2017-12-31T23:44:53.102Z,370.93
2017-12-31T23:47:18.793Z,327.33
2017-12-31T23:49:44.593Z,371.87
2017-12-31T23:52:10.273Z,517.67
2017-12-31T23:54:35.971Z,246.57
2017-12-31T23:57:01.666Z,300.30
2017-12-31T23:59:27.344Z,282.57
